Webster, NY (14580)

9:23 PM EST on February 08, 2016 (GMT -0500)
West Webster | | Change Station
CLOSE
Current Station
Personal Weather Station
Location: Webster, NY
Elevation: 377 ft
Nearby Weather Stations

Elev 377 ft 43.22 °N, 77.49 °W | Updated 27 seconds ago

Overcast
Overcast
35.4 °F
Feels Like 35 °F
N
0.4
Wind Variable Wind from ESE
Gusts 4.9 mph

Today
High -- | Low -- °F
--% Chance of Precip.
Yesterday
High -- | Low -- °F
Precip. -- in
Pressure 29.65 in
Visibility 10.0 miles
Clouds Mostly Cloudy 11000 ft
Overcast 15000 ft
Windchill 35 °F
Dew Point 17 °F
Humidity 46%
Rainfall 0.00 in
Snow Depth Not available.
7:17 AM 5:30 PM
New Moon, 0% visible
METAR KROC 090154Z 09008KT 10SM BKN110 OVC150 02/M04 A2962 RMK AO2 SLP039 T00221039
Pressure 29.65 in
Visibility 10.0 miles
Clouds Mostly Cloudy 11000 ft
Overcast 15000 ft
Windchill 35 °F
Dew Point 17 °F
Humidity 46%
Rainfall 0.00 in
Snow Depth Not available.
7:17 AM 5:30 PM
New Moon, 0% visible
METAR KROC 090154Z 09008KT 10SM BKN110 OVC150 02/M04 A2962 RMK AO2 SLP039 T00221039

10-Day Weather Forecast

Almanac

Astronomy

Feb. 08, 2016 Rise Set
Actual Time
Civil Twilight
Nautical Twilight
Astronomical Twilight
Moon
Length of Visible Light
Length of Day
Tomorrow will be .
, % of the Moon is Illuminated

Today's Extremes

State Highs State Lows

Community

WunderPhotos

Upload Photos

1,891,527 photos uploaded!

WunderBlog® & News

Nearby

Air Quality

  Air Quality AQ Index Pollutant
Not available.

Snow Depth

Station Depth Elevation

Earthquake Activity

City Distance Mag. Time & Date
Minimum magnitude displayed is 2.5.

Coastal Water Temperatures

Place Temperature

Stations

Nearby Weather Stations

Station Location Temp. Windchill Dew Point Humidity Wind Precip. Elev Updated Type
                   

Watches & Warnings

There are currently no watches in effect.